Time;durP1;ratioP1;P1;durP2;ratioP2;P2;SDS_P1;SDS_P2;PMS_P1;PMS_P2;Temp;Humidity;BMP_temperature;BMP_pressure;BME280_temperature;BME280_humidity;BME280_pressure;Samples;Min_cycle;Max_cycle;Signal;HPM_P1;HPM_P2
2022/03/02 00:01:22;;;;;;;15.73;10.63;;;2.70;78.20;;;;;;5117469;28;20543;-57
2022/03/02 00:03:49;;;;;;;16.07;11.10;;;2.70;78.20;;;;;;5117271;28;20449;-57
2022/03/02 00:06:17;;;;;;;14.00;11.47;;;2.70;78.60;;;;;;5117346;28;20462;-57
2022/03/02 00:08:44;;;;;;;16.70;11.23;;;2.80;78.00;;;;;;5117373;28;20786;-57
2022/03/02 00:11:11;;;;;;;14.27;11.57;;;2.80;78.00;;;;;;5117189;28;20446;-57
2022/03/02 00:13:40;;;;;;;17.67;12.10;;;2.90;77.30;;;;;;5117155;28;20516;-57
2022/03/02 00:16:08;;;;;;;15.37;11.37;;;2.70;78.90;;;;;;5117078;28;20470;-58
2022/03/02 00:18:35;;;;;;;13.30;10.63;;;2.60;79.20;;;;;;5116833;28;20941;-57
2022/03/02 00:21:02;;;;;;;12.73;10.80;;;2.60;78.80;;;;;;5117118;28;20439;-57
2022/03/02 00:23:30;;;;;;;16.43;11.53;;;2.70;79.60;;;;;;5117211;28;20801;-57
2022/03/02 00:25:57;;;;;;;13.77;11.30;;;2.50;79.00;;;;;;5116338;28;20878;-57
2022/03/02 00:28:25;;;;;;;13.30;11.80;;;2.40;80.50;;;;;;5116973;28;20538;-57
2022/03/02 00:30:53;;;;;;;13.00;10.27;;;2.60;80.00;;;;;;5117000;28;20530;-57
2022/03/02 00:33:20;;;;;;;15.60;11.00;;;2.80;78.50;;;;;;5116544;28;20933;-57
2022/03/02 00:35:48;;;;;;;13.17;10.63;;;2.80;78.90;;;;;;5116487;28;20444;-59
2022/03/02 00:38:15;;;;;;;13.83;11.10;;;2.90;78.80;;;;;;5116813;28;20477;-58
2022/03/02 00:40:43;;;;;;;16.37;11.13;;;3.00;77.60;;;;;;5116742;28;20796;-57
2022/03/02 00:43:10;;;;;;;15.33;12.17;;;2.90;78.20;;;;;;5116309;28;20474;-57
2022/03/02 00:45:38;;;;;;;16.70;12.53;;;2.80;78.80;;;;;;5116490;28;20452;-57
2022/03/02 00:48:08;;;;;;;16.80;13.03;;;2.80;79.80;;;;;;5116560;28;20467;-57
2022/03/02 00:50:36;;;;;;;17.77;12.80;;;2.90;80.50;;;;;;5116481;28;20534;-57
2022/03/02 00:53:05;;;;;;;20.50;13.10;;;2.80;80.20;;;;;;5116510;28;20435;-58
2022/03/02 00:55:33;;;;;;;13.80;10.80;;;2.90;80.00;;;;;;5116431;28;20921;-57
2022/03/02 00:58:00;;;;;;;17.03;10.80;;;2.90;79.80;;;;;;5116156;28;20965;-58
2022/03/02 01:00:28;;;;;;;14.67;10.30;;;3.00;79.50;;;;;;5116452;28;20449;-57
2022/03/02 01:02:55;;;;;;;17.03;11.83;;;3.00;79.50;;;;;;5115913;28;20474;-58
2022/03/02 01:05:24;;;;;;;13.10;11.13;;;3.00;78.80;;;;;;5115951;28;20928;-57
2022/03/02 01:07:52;;;;;;;15.53;12.30;;;2.80;78.90;;;;;;5115857;28;20557;-57
2022/03/02 01:10:20;;;;;;;17.63;11.57;;;2.70;79.80;;;;;;5116127;28;20451;-57
2022/03/02 01:12:47;;;;;;;13.33;11.60;;;2.60;80.50;;;;;;5116063;28;20534;-57
2022/03/02 01:15:14;;;;;;;15.17;11.70;;;2.60;80.20;;;;;;5116054;28;20458;-57
2022/03/02 01:17:42;;;;;;;17.03;11.73;;;2.70;80.00;;;;;;5116472;28;20473;-57
2022/03/02 01:20:12;;;;;;;19.23;11.63;;;2.70;80.90;;;;;;5115938;28;20442;-57
2022/03/02 01:22:41;;;;;;;15.00;11.17;;;2.80;81.80;;;;;;5115514;28;20821;-57
2022/03/02 01:25:09;;;;;;;17.60;12.70;;;2.80;81.30;;;;;;5115646;28;20454;-57
2022/03/02 01:27:37;;;;;;;15.20;11.40;;;2.90;81.80;;;;;;5115517;28;20471;-57
2022/03/02 01:30:05;;;;;;;14.47;11.40;;;2.80;81.30;;;;;;5115199;28;20447;-57
2022/03/02 01:32:32;;;;;;;19.23;12.40;;;2.80;82.30;;;;;;5115728;28;20550;-57
2022/03/02 01:34:59;;;;;;;14.30;11.40;;;2.80;82.20;;;;;;5115702;28;20470;-57
2022/03/02 01:37:26;;;;;;;17.73;12.00;;;2.90;82.30;;;;;;5115561;28;20477;-57
2022/03/02 01:39:55;;;;;;;14.67;12.13;;;2.90;81.80;;;;;;5115657;28;20445;-58
2022/03/02 01:42:22;;;;;;;14.07;10.27;;;3.00;82.00;;;;;;5115459;28;20481;-57
2022/03/02 01:44:49;;;;;;;15.23;10.40;;;2.90;82.20;;;;;;5115492;28;20533;-57
2022/03/02 01:47:16;;;;;;;14.43;10.50;;;2.70;82.70;;;;;;5116381;28;20507;-57
2022/03/02 01:49:44;;;;;;;14.33;11.70;;;2.70;82.60;;;;;;5115173;28;20816;-57
2022/03/02 01:52:11;;;;;;;16.00;11.13;;;2.70;82.30;;;;;;5115366;28;20803;-57
2022/03/02 01:54:38;;;;;;;22.00;12.00;;;2.70;81.90;;;;;;5115845;28;20455;-57
2022/03/02 01:57:08;;;;;;;15.40;10.70;;;2.60;82.80;;;;;;5114891;28;20473;-57
2022/03/02 01:59:35;;;;;;;15.53;11.00;;;2.70;83.00;;;;;;5115996;28;20469;-56
2022/03/02 02:02:02;;;;;;;13.93;11.60;;;2.70;82.90;;;;;;5115093;28;20478;-57
2022/03/02 02:04:30;;;;;;;13.27;10.43;;;2.70;82.30;;;;;;5115112;28;20447;-57
2022/03/02 02:06:57;;;;;;;16.80;12.27;;;2.70;81.70;;;;;;5114979;28;20558;-57
2022/03/02 02:09:24;;;;;;;18.73;12.50;;;2.70;80.80;;;;;;5114728;28;20449;-57
2022/03/02 02:11:52;;;;;;;18.03;13.27;;;2.70;78.60;;;;;;5114920;28;20442;-57
2022/03/02 02:14:21;;;;;;;17.03;11.53;;;2.60;79.10;;;;;;5114601;28;20451;-57
2022/03/02 02:16:48;;;;;;;18.60;12.40;;;2.60;78.50;;;;;;5114487;28;20976;-57
2022/03/02 02:19:15;;;;;;;15.47;12.30;;;2.50;79.00;;;;;;5114567;28;20453;-57
2022/03/02 02:21:46;;;;;;;16.97;12.10;;;2.50;79.60;;;;;;5114524;28;20443;-57
2022/03/02 02:24:13;;;;;;;20.30;12.00;;;2.50;80.00;;;;;;5114775;28;20427;-57
2022/03/02 02:26:40;;;;;;;18.80;12.37;;;2.60;80.10;;;;;;5113276;28;20471;-58
2022/03/02 02:29:10;;;;;;;14.43;11.40;;;2.50;80.40;;;;;;5115473;28;20759;-57
2022/03/02 02:31:37;;;;;;;13.97;12.00;;;2.40;80.70;;;;;;5114308;28;20996;-57
2022/03/02 02:34:04;;;;;;;13.97;11.57;;;2.40;82.10;;;;;;5114760;28;20518;-57
2022/03/02 02:36:31;;;;;;;17.53;11.87;;;2.40;82.40;;;;;;5114487;28;20473;-57
2022/03/02 02:39:00;;;;;;;14.33;11.00;;;2.30;82.10;;;;;;5114524;28;20800;-57
2022/03/02 02:41:27;;;;;;;21.27;13.53;;;2.30;83.10;;;;;;5114059;28;20450;-57
2022/03/02 02:43:55;;;;;;;18.27;11.90;;;2.30;83.00;;;;;;5113823;28;20632;-57
2022/03/02 02:46:22;;;;;;;15.17;11.60;;;2.20;83.60;;;;;;5114409;28;20495;-57
2022/03/02 02:48:49;;;;;;;17.30;12.13;;;2.20;84.60;;;;;;5114062;28;20453;-57
2022/03/02 02:51:20;;;;;;;16.57;12.10;;;2.20;84.50;;;;;;5114061;28;20453;-57
2022/03/02 02:53:47;;;;;;;12.53;11.13;;;2.20;85.00;;;;;;5114377;28;20443;-57
2022/03/02 02:56:16;;;;;;;19.80;12.17;;;2.20;85.00;;;;;;5114454;28;20825;-57
2022/03/02 02:58:43;;;;;;;12.93;11.07;;;2.30;84.80;;;;;;5113986;28;20450;-57
2022/03/02 03:01:10;;;;;;;20.50;13.80;;;2.20;84.80;;;;;;5114247;28;20785;-57
2022/03/02 03:03:37;;;;;;;17.00;12.67;;;2.10;84.70;;;;;;5114223;28;20482;-58
2022/03/02 03:06:05;;;;;;;16.07;11.97;;;2.00;85.40;;;;;;5113856;28;20466;-57
2022/03/02 03:08:32;;;;;;;16.87;11.17;;;2.00;85.30;;;;;;5114183;28;20449;-57
2022/03/02 03:10:59;;;;;;;19.30;13.20;;;2.00;84.90;;;;;;5114173;28;20446;-57
2022/03/02 03:13:28;;;;;;;15.57;11.47;;;1.80;85.10;;;;;;5114152;28;20449;-57
2022/03/02 03:15:55;;;;;;;16.67;11.83;;;1.70;86.30;;;;;;5113754;28;20947;-57
2022/03/02 03:18:23;;;;;;;17.10;13.17;;;1.80;86.40;;;;;;5113807;28;20448;-57
2022/03/02 03:20:50;;;;;;;16.60;12.70;;;1.90;86.60;;;;;;5114250;28;20442;-57
2022/03/02 03:23:17;;;;;;;12.57;11.27;;;1.90;86.80;;;;;;5114001;28;20869;-57
2022/03/02 03:25:44;;;;;;;14.23;11.97;;;1.90;86.80;;;;;;5113679;28;20474;-57
2022/03/02 03:28:11;;;;;;;16.00;11.87;;;2.00;86.90;;;;;;5114062;28;20453;-57
2022/03/02 03:30:40;;;;;;;16.30;13.00;;;1.90;87.00;;;;;;5113784;28;20936;-57
2022/03/02 03:33:07;;;;;;;15.80;11.83;;;1.90;86.90;;;;;;5113659;28;20442;-57
2022/03/02 03:35:34;;;;;;;18.20;12.50;;;1.90;87.10;;;;;;5113670;28;20446;-58
2022/03/02 03:38:01;;;;;;;13.23;11.87;;;1.90;87.30;;;;;;5113953;28;20467;-57
2022/03/02 03:40:29;;;;;;;14.57;11.47;;;1.80;87.90;;;;;;5113889;28;20807;-57
2022/03/02 03:42:56;;;;;;;13.30;11.87;;;1.70;88.30;;;;;;5113729;28;20484;-57
2022/03/02 03:45:24;;;;;;;17.73;12.20;;;1.70;88.70;;;;;;5113848;28;20446;-57
2022/03/02 03:47:53;;;;;;;17.63;11.80;;;1.70;89.00;;;;;;5113686;28;21021;-57
2022/03/02 03:50:20;;;;;;;16.50;12.70;;;1.70;89.70;;;;;;5113874;28;20438;-57
2022/03/02 03:52:48;;;;;;;18.17;13.00;;;1.60;90.00;;;;;;5113780;28;20493;-57
2022/03/02 03:55:16;;;;;;;16.30;11.20;;;1.60;89.10;;;;;;5117587;28;20480;-57
2022/03/02 03:57:44;;;;;;;15.93;12.20;;;1.60;89.00;;;;;;5117546;28;20473;-57
2022/03/02 04:00:15;;;;;;;15.13;11.90;;;1.60;89.90;;;;;;5117551;28;20804;-57
2022/03/02 04:02:44;;;;;;;15.57;12.80;;;1.60;89.90;;;;;;5117434;28;20553;-57
2022/03/02 04:05:13;;;;;;;17.40;11.83;;;1.60;89.90;;;;;;5117419;28;20443;-57
2022/03/02 04:07:41;;;;;;;14.80;12.20;;;1.50;89.70;;;;;;5117339;28;20469;-57
2022/03/02 04:10:10;;;;;;;14.93;12.10;;;1.30;89.40;;;;;;5117362;28;20450;-57
2022/03/02 04:12:37;;;;;;;17.57;12.60;;;1.40;88.80;;;;;;5117026;28;20457;-57
2022/03/02 04:15:06;;;;;;;16.30;12.40;;;1.40;90.10;;;;;;5117359;28;20442;-57
2022/03/02 04:17:33;;;;;;;16.33;12.90;;;1.50;89.70;;;;;;5116829;28;20480;-57
2022/03/02 04:20:00;;;;;;;15.80;12.40;;;1.50;88.90;;;;;;5116822;28;20545;-57
2022/03/02 04:22:29;;;;;;;17.10;11.20;;;1.50;88.50;;;;;;5116703;28;20464;-57
2022/03/02 04:24:56;;;;;;;14.80;12.17;;;1.50;88.30;;;;;;5117055;28;20450;-57
2022/03/02 04:27:23;;;;;;;18.87;12.03;;;1.50;88.70;;;;;;5116546;28;20486;-57
2022/03/02 04:29:50;;;;;;;17.10;11.90;;;1.50;88.20;;;;;;5116967;28;20446;-57
2022/03/02 04:32:17;;;;;;;15.60;11.00;;;1.60;88.60;;;;;;5116921;28;20534;-57
2022/03/02 04:34:44;;;;;;;17.40;13.33;;;1.50;87.60;;;;;;5117155;28;20442;-57
2022/03/02 04:37:11;;;;;;;17.47;12.03;;;1.40;87.70;;;;;;5116757;28;20466;-57
2022/03/02 04:39:40;;;;;;;15.57;11.33;;;1.40;87.70;;;;;;5116507;28;20446;-57
2022/03/02 04:42:08;;;;;;;16.10;12.80;;;1.40;88.10;;;;;;5116410;28;20446;-56
2022/03/02 04:44:35;;;;;;;17.60;12.67;;;1.30;89.40;;;;;;5116300;28;20490;-57
2022/03/02 04:47:02;;;;;;;12.90;11.20;;;1.40;89.80;;;;;;5117015;28;20495;-57
2022/03/02 04:49:29;;;;;;;18.30;13.33;;;1.40;88.90;;;;;;5116657;28;20449;-57
2022/03/02 04:51:57;;;;;;;16.90;12.63;;;1.30;89.10;;;;;;5116270;28;20489;-57
2022/03/02 04:57:10;;;;;;;17.20;12.03;;;1.20;90.10;;;;;;5116571;28;20492;-57
2022/03/02 04:59:37;;;;;;;14.30;10.50;;;1.10;90.40;;;;;;5116449;28;20863;-57
2022/03/02 05:02:05;;;;;;;21.90;13.50;;;1.20;90.30;;;;;;5116876;28;20447;-57
2022/03/02 05:04:32;;;;;;;17.73;13.73;;;1.20;90.20;;;;;;5116009;28;20582;-57
2022/03/02 05:06:59;;;;;;;20.97;13.07;;;1.20;90.10;;;;;;5115422;28;20498;-57
2022/03/02 05:09:26;;;;;;;16.10;12.00;;;1.30;90.20;;;;;;5115920;28;20952;-57
2022/03/02 05:11:54;;;;;;;18.93;12.77;;;1.40;90.20;;;;;;5116218;28;20806;-57
2022/03/02 05:14:22;;;;;;;17.00;12.40;;;1.40;89.40;;;;;;5115995;28;20537;-57
2022/03/02 05:16:50;;;;;;;18.00;12.87;;;1.40;90.00;;;;;;5115996;28;20590;-58
2022/03/02 05:19:17;;;;;;;17.97;12.27;;;1.40;90.00;;;;;;5115972;28;20932;-57
2022/03/02 05:21:44;;;;;;;18.10;11.47;;;1.30;90.20;;;;;;5115891;28;20453;-57
2022/03/02 05:24:11;;;;;;;18.43;11.47;;;1.40;90.20;;;;;;5115782;28;20557;-57
2022/03/02 05:26:38;;;;;;;18.23;13.13;;;1.30;90.00;;;;;;5115422;28;20486;-57
2022/03/02 05:29:05;;;;;;;16.00;12.30;;;1.30;90.20;;;;;;5115768;28;20450;-57
2022/03/02 05:31:34;;;;;;;19.00;12.47;;;1.20;89.90;;;;;;5115461;28;20435;-57
2022/03/02 05:34:01;;;;;;;15.77;12.70;;;1.30;90.20;;;;;;5115645;28;20434;-57
2022/03/02 05:36:28;;;;;;;21.80;13.30;;;1.30;90.10;;;;;;5115577;28;20462;-57
2022/03/02 05:38:56;;;;;;;14.63;11.37;;;1.30;90.20;;;;;;5115299;28;20448;-57
2022/03/02 05:41:23;;;;;;;16.47;12.63;;;;;;;;;;5115229;28;20442;-57
2022/03/02 05:43:53;;;;;;;17.97;11.47;;;1.40;90.30;;;;;;5115098;28;20493;-57
2022/03/02 05:46:20;;;;;;;21.60;13.50;;;1.40;90.50;;;;;;5115349;28;20524;-57
2022/03/02 05:48:52;;;;;;;18.30;13.10;;;1.30;90.60;;;;;;5115094;28;20933;-57
2022/03/02 05:51:19;;;;;;;14.73;11.37;;;1.30;90.60;;;;;;5115062;28;20932;-57
2022/03/02 05:53:46;;;;;;;18.77;13.20;;;1.30;90.90;;;;;;5114989;28;20442;-57
2022/03/02 05:56:13;;;;;;;18.80;13.80;;;1.30;90.90;;;;;;5115388;28;20509;-57
2022/03/02 05:58:40;;;;;;;25.77;14.30;;;1.30;90.90;;;;;;5114838;28;20457;-57
2022/03/02 06:01:07;;;;;;;13.97;12.33;;;1.30;91.10;;;;;;5114821;28;20475;-57
2022/03/02 06:03:35;;;;;;;19.40;12.47;;;1.40;91.00;;;;;;5114890;28;20489;-57
2022/03/02 06:06:04;;;;;;;16.90;12.90;;;1.50;90.60;;;;;;5114990;28;20443;-57
2022/03/02 06:08:32;;;;;;;19.80;12.43;;;1.50;90.20;;;;;;5115531;28;20450;-57
2022/03/02 06:10:59;;;;;;;19.97;13.00;;;1.60;89.50;;;;;;5114578;28;20520;-57
2022/03/02 06:13:27;;;;;;;13.90;11.70;;;1.60;89.70;;;;;;5114555;28;20443;-57
2022/03/02 06:15:55;;;;;;;15.03;11.67;;;1.70;89.10;;;;;;5114556;28;20453;-57
2022/03/02 06:18:22;;;;;;;14.53;12.47;;;1.80;89.30;;;;;;5114764;28;20456;-57
2022/03/02 06:20:52;;;;;;;15.93;11.80;;;1.70;89.10;;;;;;5114416;28;20533;-57
2022/03/02 06:23:21;;;;;;;23.10;12.87;;;1.70;89.30;;;;;;5114480;28;20514;-57
2022/03/02 06:25:49;;;;;;;15.30;11.83;;;1.60;88.70;;;;;;5114394;28;20489;-57
2022/03/02 06:28:16;;;;;;;17.60;13.40;;;1.70;89.40;;;;;;5114897;28;20809;-57
2022/03/02 06:30:44;;;;;;;14.13;12.50;;;1.80;89.50;;;;;;5114508;28;20450;-57
2022/03/02 06:33:15;;;;;;;17.83;13.13;;;1.80;88.80;;;;;;5114658;28;20457;-57
2022/03/02 06:35:42;;;;;;;20.53;14.60;;;1.90;88.60;;;;;;5114459;28;20526;-57
2022/03/02 06:38:09;;;;;;;20.97;13.40;;;1.90;88.60;;;;;;5114467;28;20442;-57
2022/03/02 06:40:38;;;;;;;17.53;13.03;;;1.90;88.20;;;;;;5114164;28;20978;-57
2022/03/02 06:43:07;;;;;;;20.17;11.90;;;1.90;88.30;;;;;;5114232;28;20450;-57
2022/03/02 06:45:48;;;;;;;14.83;12.17;;;2.00;88.90;;;;;;5114260;28;20513;-57
2022/03/02 06:48:20;;;;;;;15.97;12.23;;;2.10;89.00;;;;;;5114060;28;20813;-57
2022/03/02 06:50:51;;;;;;;17.30;12.37;;;2.20;88.00;;;;;;5114201;28;20414;-57
2022/03/02 06:53:20;;;;;;;18.83;12.70;;;2.20;88.20;;;;;;5114004;28;20510;-57
2022/03/02 06:55:49;;;;;;;18.07;13.03;;;2.20;87.40;;;;;;5114069;28;20438;-57
2022/03/02 06:58:21;;;;;;;18.20;11.80;;;2.30;87.30;;;;;;5114140;28;20448;-57
2022/03/02 07:00:53;;;;;;;20.40;12.47;;;2.40;87.60;;;;;;5114197;28;20419;-57
2022/03/02 07:03:25;;;;;;;18.20;14.00;;;2.40;87.40;;;;;;5114615;28;20427;-57
2022/03/02 07:05:54;;;;;;;16.20;12.47;;;2.40;86.50;;;;;;5114363;28;20568;-57
2022/03/02 07:08:24;;;;;;;16.13;13.83;;;2.30;87.10;;;;;;5114116;28;20442;-57
2022/03/02 07:10:53;;;;;;;15.13;12.60;;;2.40;86.60;;;;;;5113753;28;20479;-57
2022/03/02 07:13:22;;;;;;;19.73;13.43;;;2.40;87.40;;;;;;5114124;28;20446;-57
2022/03/02 07:15:51;;;;;;;22.20;13.80;;;2.40;86.70;;;;;;5113844;28;20997;-57
2022/03/02 07:18:19;;;;;;;17.53;12.87;;;2.50;87.50;;;;;;5113857;28;20944;-57
2022/03/02 07:20:51;;;;;;;16.03;13.27;;;2.60;86.80;;;;;;5113912;28;20447;-57
2022/03/02 07:23:19;;;;;;;19.03;12.50;;;2.70;86.30;;;;;;5113712;28;20427;-57
2022/03/02 07:25:47;;;;;;;23.70;13.17;;;2.70;85.70;;;;;;5113675;28;20992;-57
2022/03/02 07:28:16;;;;;;;18.30;13.03;;;2.70;86.40;;;;;;5114620;28;20465;-57
2022/03/02 07:30:45;;;;;;;18.87;12.10;;;2.70;86.50;;;;;;5117860;28;20442;-57
2022/03/02 07:33:15;;;;;;;22.43;13.17;;;2.80;86.40;;;;;;5117950;28;20519;-56
2022/03/02 07:35:55;;;;;;;18.30;13.23;;;2.80;85.10;;;;;;5118179;28;20446;-57
2022/03/02 07:38:23;;;;;;;20.83;14.03;;;2.90;86.50;;;;;;5117743;28;20437;-57
2022/03/02 07:40:52;;;;;;;22.90;13.37;;;3.10;85.60;;;;;;5117620;28;20446;-57
2022/03/02 07:43:21;;;;;;;18.83;14.20;;;3.20;84.90;;;;;;5117808;28;20526;-58
2022/03/02 07:45:48;;;;;;;23.40;15.10;;;3.10;85.20;;;;;;5117436;28;20482;-58
2022/03/02 07:48:16;;;;;;;20.13;13.83;;;3.10;85.00;;;;;;5117875;28;20941;-58
2022/03/02 07:50:44;;;;;;;24.90;14.57;;;3.20;85.30;;;;;;5117771;28;20529;-58
2022/03/02 07:53:16;;;;;;;15.10;13.60;;;3.10;84.90;;;;;;5118191;28;20909;-57
2022/03/02 07:55:45;;;;;;;19.63;13.13;;;3.10;85.10;;;;;;5106475;28;20832;-58
2022/03/02 07:58:13;;;;;;;15.80;12.80;;;3.40;85.60;;;;;;5096823;28;20448;-57
2022/03/02 08:00:42;;;;;;;19.37;14.33;;;3.90;88.50;;;;;;5101752;28;20550;-52
2022/03/02 08:03:11;;;;;;;18.50;14.50;;;4.50;85.90;;;;;;5096308;28;20447;-60
2022/03/02 08:05:38;;;;;;;24.90;13.67;;;4.40;82.30;;;;;;5104201;28;20478;-57
2022/03/02 08:08:08;;;;;;;16.47;13.90;;;5.50;82.00;;;;;;5116958;28;20473;-59
2022/03/02 08:10:35;;;;;;;17.23;14.27;;;6.20;77.50;;;;;;5110235;28;20536;-53
2022/03/02 08:13:02;;;;;;;18.53;13.10;;;6.00;76.60;;;;;;5096658;28;20447;-59
2022/03/02 08:15:30;;;;;;;19.97;13.90;;;5.30;76.50;;;;;;5116903;28;20474;-54
2022/03/02 08:17:59;;;;;;;22.97;14.37;;;5.30;76.70;;;;;;5116150;28;20519;-57
2022/03/02 08:20:26;;;;;;;17.53;14.47;;;5.30;77.20;;;;;;5116627;28;20557;-52
2022/03/02 08:22:56;;;;;;;18.33;14.80;;;5.90;75.50;;;;;;5107693;28;20934;-53
2022/03/02 08:25:25;;;;;;;21.53;16.00;;;5.90;75.30;;;;;;5105210;28;20491;-58
2022/03/02 08:27:54;;;;;;;19.40;14.50;;;5.70;76.00;;;;;;5096215;28;20478;-59
2022/03/02 08:30:21;;;;;;;16.80;14.37;;;5.00;75.80;;;;;;5100482;28;20458;-60
2022/03/02 08:32:50;;;;;;;15.50;13.80;;;4.90;78.00;;;;;;5113830;28;20837;-58
2022/03/02 08:35:20;;;;;;;20.10;13.53;;;6.10;78.20;;;;;;5116419;28;20521;-60
2022/03/02 08:37:48;;;;;;;22.30;14.57;;;5.80;73.80;;;;;;5100589;28;20547;-62
2022/03/02 08:40:15;;;;;;;18.57;15.20;;;5.70;76.00;;;;;;5094383;28;20451;-59
2022/03/02 08:42:44;;;;;;;19.47;14.13;;;6.00;75.60;;;;;;5095685;28;20447;-55
2022/03/02 08:45:11;;;;;;;18.33;15.27;;;5.60;75.20;;;;;;5111414;28;20528;-54
2022/03/02 08:47:40;;;;;;;16.57;14.53;;;5.20;75.00;;;;;;5101319;28;20475;-58
2022/03/02 08:50:09;;;;;;;18.43;15.33;;;4.90;75.50;;;;;;5106638;28;20442;-59
2022/03/02 08:52:37;;;;;;;26.10;16.70;;;4.60;75.70;;;;;;5116031;28;20478;-56
2022/03/02 08:55:08;;;;;;;19.40;15.10;;;4.60;77.90;;;;;;5112857;28;20809;-54
2022/03/02 08:57:36;;;;;;;20.17;16.63;;;4.70;76.90;;;;;;5106336;28;20918;-57
2022/03/02 09:00:07;;;;;;;21.73;14.70;;;4.80;76.90;;;;;;5095319;28;20451;-57
2022/03/02 09:02:37;;;;;;;22.77;14.87;;;5.00;76.50;;;;;;5095604;28;20535;-50
2022/03/02 09:05:06;;;;;;;18.40;14.43;;;6.50;84.60;;;;;;5095456;28;20495;-56
2022/03/02 09:07:34;;;;;;;21.80;15.70;;;6.60;75.20;;;;;;5105755;28;20477;-54
2022/03/02 09:10:04;;;;;;;23.63;15.13;;;6.00;73.90;;;;;;5115669;28;20450;-49
2022/03/02 09:12:31;;;;;;;20.73;15.50;;;5.70;75.00;;;;;;5105347;28;20444;-56
2022/03/02 09:14:59;;;;;;;21.60;13.70;;;5.70;75.70;;;;;;5095086;28;20444;-59
2022/03/02 09:17:26;;;;;;;19.37;14.33;;;5.70;74.00;;;;;;5096676;28;20464;-55
2022/03/02 09:19:53;;;;;;;21.40;14.87;;;5.90;75.30;;;;;;5094992;28;20504;-58
2022/03/02 09:22:24;;;;;;;20.67;15.40;;;5.90;75.00;;;;;;5099341;28;20867;-50
2022/03/02 09:24:52;;;;;;;24.13;16.80;;;6.10;76.90;;;;;;5115390;28;20992;-50
2022/03/02 09:27:26;;;;;;;27.80;16.27;;;6.20;74.80;;;;;;5110049;28;20490;-54
2022/03/02 09:29:54;;;;;;;25.70;16.87;;;7.50;88.00;;;;;;5094996;28;20522;-55
2022/03/02 09:32:24;;;;;;;21.97;15.53;;;7.80;77.80;;;;;;5106162;28;20457;-55
2022/03/02 09:34:57;;;;;;;22.60;15.90;;;8.40;71.70;;;;;;5114918;28;20443;-54
2022/03/02 09:37:25;;;;;;;23.40;17.00;;;7.10;69.20;;;;;;5114875;28;20520;-51
2022/03/02 09:39:54;;;;;;;20.60;16.20;;;6.70;70.70;;;;;;5115056;28;20955;-54
2022/03/02 09:42:28;;;;;;;19.07;13.97;;;6.50;71.30;;;;;;5114476;28;20443;-58
2022/03/02 09:45:01;;;;;;;21.07;15.23;;;6.50;71.10;;;;;;5114541;28;20498;-52
2022/03/02 09:47:43;;;;;;;16.40;13.90;;;6.60;71.20;;;;;;5114598;28;20620;-60
2022/03/02 09:50:13;;;;;;;17.13;14.13;;;6.40;69.10;;;;;;5114481;28;20458;-56
2022/03/02 09:52:44;;;;;;;15.80;11.73;;;6.40;69.60;;;;;;5114127;27;20431;-55
2022/03/02 09:55:13;;;;;;;21.60;15.20;;;7.60;88.60;;;;;;5113632;28;20442;-58
2022/03/02 09:57:44;;;;;;;20.40;14.30;;;12.20;76.70;;;;;;5115012;28;20470;-56
2022/03/02 10:00:12;;;;;;;29.23;14.57;;;13.80;61.00;;;;;;5114203;28;20495;-60
2022/03/02 10:02:41;;;;;;;18.23;13.53;;;11.40;58.10;;;;;;5114308;28;20482;-59
2022/03/02 10:05:11;;;;;;;16.37;13.87;;;12.20;60.10;;;;;;5114250;28;20480;-58
2022/03/02 10:07:44;;;;;;;15.03;13.53;;;11.20;57.80;;;;;;5114226;28;20463;-57
2022/03/02 10:10:13;;;;;;;17.27;14.47;;;11.70;58.00;;;;;;5114024;28;20814;-52
2022/03/02 10:12:42;;;;;;;22.03;14.57;;;11.60;55.90;;;;;;5112191;28;20481;-49
2022/03/02 10:15:12;;;;;;;19.37;14.40;;;10.10;57.20;;;;;;5104952;28;20477;-53
2022/03/02 10:17:42;;;;;;;17.93;16.03;;;9.90;58.40;;;;;;5112158;28;20980;-54
2022/03/02 10:20:12;;;;;;;16.00;14.40;;;9.50;58.80;;;;;;5095020;28;20845;-54
2022/03/02 10:23:01;;;;;;;18.10;14.70;;;9.60;60.40;;;;;;5103653;28;20482;-52
2022/03/02 10:25:44;;;;;;;21.43;14.30;;;9.30;59.00;;;;;;5086114;28;20886;-46
2022/03/02 10:28:17;;;;;;;18.37;14.43;;;8.90;61.10;;;;;;5105888;28;20442;-50
2022/03/02 10:30:59;;;;;;;18.80;15.43;;;8.60;59.40;;;;;;5093840;28;20451;-50
2022/03/02 10:33:37;;;;;;;19.40;14.60;;;8.20;58.70;;;;;;5092058;28;20434;-56
2022/03/02 10:36:09;;;;;;;12.93;11.43;;;8.00;61.50;;;;;;5094589;28;20465;-48
2022/03/02 10:39:04;;;;;;;15.43;12.80;;;9.20;77.70;;;;;;5092568;28;20527;-63
2022/03/02 10:41:37;;;;;;;17.07;13.47;;;13.20;66.90;;;;;;5090571;28;20454;-58
2022/03/02 10:44:13;;;;;;;18.50;13.93;;;14.10;57.60;;;;;;5090452;28;20420;-53
2022/03/02 10:46:46;;;;;;;19.93;14.83;;;14.40;58.00;;;;;;5094972;28;20481;-59
2022/03/02 10:49:21;;;;;;;22.67;16.10;;;12.80;52.20;;;;;;5111920;28;20453;-56
2022/03/02 10:51:49;;;;;;;18.60;15.37;;;11.30;55.50;;;;;;5110995;28;20518;-55
2022/03/02 10:54:20;;;;;;;19.57;15.63;;;9.60;56.20;;;;;;5101960;28;20450;-55
2022/03/02 10:56:51;;;;;;;23.83;16.80;;;9.40;57.80;;;;;;5112133;28;20517;-58
2022/03/02 10:59:23;;;;;;;20.13;14.93;;;8.90;57.10;;;;;;5105055;28;20953;-57
2022/03/02 11:01:50;;;;;;;16.33;13.80;;;8.20;58.20;;;;;;5091456;28;20466;-54
2022/03/02 11:04:20;;;;;;;16.33;14.63;;;8.10;58.40;;;;;;5091724;28;20956;-55
2022/03/02 11:06:47;;;;;;;23.77;14.07;;;8.40;60.30;;;;;;5099814;28;20606;-54
2022/03/02 11:09:17;;;;;;;20.37;13.30;;;10.00;76.20;;;;;;5103985;28;20534;-57
2022/03/02 11:11:45;;;;;;;16.40;13.57;;;11.60;68.50;;;;;;5098842;28;20447;-50
2022/03/02 11:14:13;;;;;;;21.13;14.23;;;12.90;57.60;;;;;;5091205;28;20527;-52
2022/03/02 11:16:43;;;;;;;21.20;15.30;;;11.50;56.90;;;;;;5097256;28;20466;-50
2022/03/02 11:19:12;;;;;;;19.50;14.80;;;10.50;57.20;;;;;;5107598;28;20431;-47
2022/03/02 11:21:41;;;;;;;19.90;14.67;;;9.50;58.40;;;;;;5104354;28;20449;-51
2022/03/02 11:24:10;;;;;;;22.43;15.07;;;9.00;59.00;;;;;;5110798;28;20443;-50
2022/03/02 11:26:38;;;;;;;18.83;16.13;;;8.90;59.70;;;;;;5093853;28;20491;-56
2022/03/02 11:29:11;;;;;;;19.03;13.90;;;8.80;59.10;;;;;;5093419;28;20460;-56
2022/03/02 11:31:43;;;;;;;23.43;15.60;;;8.80;60.20;;;;;;5098371;28;20478;-56
2022/03/02 11:34:11;;;;;;;21.27;15.47;;;8.60;61.30;;;;;;5091984;28;20439;-55
2022/03/02 11:36:40;;;;;;;17.13;13.50;;;8.50;60.30;;;;;;5104691;28;20989;-59
2022/03/02 11:39:08;;;;;;;18.70;13.87;;;9.20;60.80;;;;;;5112060;28;20959;-56
2022/03/02 11:41:38;;;;;;;17.80;14.90;;;9.80;61.50;;;;;;5113126;28;20446;-57
2022/03/02 11:44:25;;;;;;;16.67;14.87;;;9.90;59.20;;;;;;5110430;28;20489;-55
2022/03/02 11:46:54;;;;;;;17.13;14.73;;;10.10;58.20;;;;;;5112951;28;20492;-55
2022/03/02 11:49:22;;;;;;;22.47;15.33;;;9.90;58.70;;;;;;5112434;28;20451;-55
2022/03/02 11:52:05;;;;;;;19.77;13.33;;;9.90;58.00;;;;;;5111014;28;20454;-53
2022/03/02 11:54:41;;;;;;;18.97;14.13;;;9.40;58.00;;;;;;5102176;28;20477;-54
2022/03/02 11:57:10;;;;;;;16.53;14.13;;;9.10;58.30;;;;;;5099653;28;20495;-54
2022/03/02 11:59:39;;;;;;;15.27;13.33;;;9.30;58.80;;;;;;5091783;28;20990;-53
2022/03/02 12:02:15;;;;;;;17.40;13.13;;;9.40;59.10;;;;;;5092693;28;20517;-54
2022/03/02 12:04:57;;;;;;;16.00;14.20;;;9.60;58.90;;;;;;5090365;28;20526;-54
2022/03/02 12:07:24;;;;;;;17.67;14.00;;;9.40;58.50;;;;;;5092202;28;20459;-54
2022/03/02 12:09:51;;;;;;;17.57;13.63;;;9.80;57.90;;;;;;5092392;28;20747;-52
2022/03/02 12:12:22;;;;;;;20.90;12.90;;;10.10;57.70;;;;;;5090121;28;20486;-55
2022/03/02 12:14:52;;;;;;;16.50;11.63;;;10.40;57.40;;;;;;5093460;28;20547;-57
2022/03/02 12:17:23;;;;;;;20.40;12.60;;;10.50;56.30;;;;;;5095344;28;20864;-54
2022/03/02 12:19:54;;;;;;;15.17;12.00;;;10.50;54.40;;;;;;5093647;28;20535;-51
2022/03/02 12:22:22;;;;;;;14.97;13.37;;;10.60;55.30;;;;;;5096220;28;20772;-54
2022/03/02 12:24:51;;;;;;;16.33;12.50;;;11.30;56.30;;;;;;5095554;28;20463;-58
2022/03/02 12:27:19;;;;;;;17.43;12.73;;;11.40;55.50;;;;;;5105086;28;20895;-54
2022/03/02 12:29:54;;;;;;;20.33;15.40;;;11.50;56.40;;;;;;5115665;28;20451;-50
2022/03/02 12:32:26;;;;;;;20.37;15.27;;;11.40;56.30;;;;;;5116006;28;20453;-54
2022/03/02 12:34:55;;;;;;;16.80;13.33;;;11.50;56.30;;;;;;5113840;28;20426;-53
2022/03/02 12:37:23;;;;;;;16.90;13.27;;;12.10;54.90;;;;;;5115720;28;20542;-55
2022/03/02 12:39:51;;;;;;;17.60;14.00;;;12.40;57.10;;;;;;5115474;28;20450;-55
2022/03/02 12:42:19;;;;;;;13.63;12.10;;;12.10;54.60;;;;;;5113654;28;20533;-54
2022/03/02 12:44:49;;;;;;;15.30;12.93;;;12.20;54.50;;;;;;5115635;28;20508;-55
2022/03/02 12:47:24;;;;;;;15.17;12.80;;;12.20;54.20;;;;;;5115488;28;20482;-55